Terminal Aerodrome Forecast
Issued by NWS Cleveland, OH

Home | Current Version | Previous Version | Text Only | Print | Product List | Glossary On
Versions: 1 2 3 4 5 6 7 8 9 10 11 12 13 14 15 16 17
446
FTUS41 KCLE 241734
TAFYNG
TAF
KYNG 241734Z 2418/2518 18008KT P6SM VCTS BKN035CB OVC080
      TEMPO 2418/2420 VRB25G35KT 1SM -TSRA OVC020CB
     FM242000 22008KT P6SM BKN035
     FM242200 24008KT 5SM -SHRA VCTS BKN040CB OVC080
     FM250100 23005KT P6SM SCT040 BKN100=

USA.gov is the U.S. government's official web portal to all federal, state and local government web resources and services.